createdAt,value
2022-09-22T00:01:46.086Z,9.95
2022-09-22T00:06:51.382Z,9.48
2022-09-22T00:11:54.036Z,9.45
2022-09-22T00:16:58.961Z,11.23
2022-09-22T00:22:01.087Z,9.85
2022-09-22T00:27:03.098Z,9.50
2022-09-22T00:32:07.596Z,8.88
2022-09-22T00:37:09.739Z,10.27
2022-09-22T00:42:14.356Z,10.43
2022-09-22T00:47:26.085Z,10.20
2022-09-22T00:52:48.543Z,9.25
2022-09-22T00:57:53.211Z,9.40
2022-09-22T01:02:59.176Z,10.15
2022-09-22T01:08:02.519Z,10.80
2022-09-22T01:13:39.835Z,10.60
2022-09-22T01:18:54.115Z,14.07
2022-09-22T01:24:27.205Z,15.98
2022-09-22T01:29:58.336Z,13.43
2022-09-22T01:35:18.601Z,13.45
2022-09-22T01:40:31.537Z,16.65
2022-09-22T01:45:35.464Z,17.27
2022-09-22T01:50:46.075Z,19.10
2022-09-22T01:55:53.235Z,19.33
2022-09-22T02:01:00.947Z,17.85
2022-09-22T02:06:06.739Z,19.40
2022-09-22T02:11:14.096Z,20.08
2022-09-22T02:16:18.925Z,20.25
2022-09-22T02:21:21.866Z,21.00
2022-09-22T02:26:28.349Z,21.60
2022-09-22T02:31:34.243Z,22.10
2022-09-22T02:36:40.982Z,20.52
2022-09-22T02:42:15.736Z,19.73
2022-09-22T02:47:24.872Z,20.92
2022-09-22T02:52:26.820Z,22.98
2022-09-22T02:57:28.979Z,21.23
2022-09-22T03:02:30.976Z,20.70
2022-09-22T03:07:33.072Z,21.05
2022-09-22T03:12:35.058Z,18.58
2022-09-22T03:17:37.425Z,17.75
2022-09-22T03:22:39.473Z,17.80
2022-09-22T03:27:41.469Z,17.08
2022-09-22T03:32:43.471Z,16.73
2022-09-22T03:37:46.372Z,17.52
2022-09-22T03:42:48.461Z,17.03
2022-09-22T03:47:50.448Z,18.23
2022-09-22T03:52:53.001Z,16.58
2022-09-22T03:57:55.301Z,17.80
2022-09-22T04:02:58.704Z,17.70
2022-09-22T04:08:01.022Z,18.25
2022-09-22T04:13:02.976Z,17.05
2022-09-22T04:18:05.529Z,17.73
2022-09-22T04:23:07.529Z,21.75
2022-09-22T04:28:09.551Z,20.33
2022-09-22T04:33:11.471Z,20.05
2022-09-22T04:38:14.767Z,21.73
2022-09-22T04:43:17.102Z,18.02
2022-09-22T04:48:19.640Z,17.35
2022-09-22T04:53:21.603Z,19.02
2022-09-22T04:58:24.106Z,19.08
2022-09-22T05:03:26.035Z,18.92
2022-09-22T05:08:27.999Z,19.98
2022-09-22T05:13:30.293Z,21.95
2022-09-22T05:18:33.009Z,18.58
2022-09-22T05:23:35.818Z,20.75
2022-09-22T05:28:37.770Z,19.33
2022-09-22T05:33:39.665Z,18.58
2022-09-22T05:38:41.809Z,17.92
2022-09-22T05:43:43.821Z,20.02
2022-09-22T05:48:45.781Z,19.30
2022-09-22T05:53:47.705Z,18.08
2022-09-22T05:58:49.809Z,16.98
2022-09-22T06:03:51.703Z,16.35
2022-09-22T06:08:53.604Z,16.75
2022-09-22T06:13:55.642Z,15.88
2022-09-22T06:18:57.613Z,16.02
2022-09-22T06:23:59.591Z,15.73
2022-09-22T06:29:01.873Z,16.15
2022-09-22T06:34:07.523Z,16.55
2022-09-22T06:39:10.731Z,15.65
2022-09-22T06:44:12.756Z,15.03
2022-09-22T06:49:14.855Z,15.82
2022-09-22T06:54:16.829Z,15.60
2022-09-22T06:59:19.131Z,16.05
2022-09-22T07:04:23.232Z,14.32
2022-09-22T07:09:25.190Z,14.13
2022-09-22T07:14:28.367Z,14.85
2022-09-22T07:19:36.421Z,13.82
2022-09-22T07:24:38.420Z,11.77
2022-09-22T07:29:40.560Z,13.02
2022-09-22T07:34:42.497Z,13.27
2022-09-22T07:39:45.723Z,9.82
2022-09-22T07:45:06.332Z,10.35
2022-09-22T07:50:08.775Z,8.40
2022-09-22T07:55:10.787Z,9.77
2022-09-22T08:00:13.502Z,9.73
2022-09-22T08:05:16.376Z,9.45
2022-09-22T08:10:19.400Z,10.43
2022-09-22T08:15:26.827Z,9.93
2022-09-22T08:20:29.792Z,8.63
2022-09-22T08:25:31.815Z,11.75
2022-09-22T08:30:35.687Z,10.32
2022-09-22T08:35:37.989Z,11.38
2022-09-22T08:40:47.214Z,9.85
2022-09-22T08:45:50.067Z,10.75
2022-09-22T08:51:16.636Z,11.87
2022-09-22T08:56:30.648Z,10.20
2022-09-22T09:02:02.645Z,9.77
2022-09-22T09:07:10.405Z,10.75
2022-09-22T09:12:38.942Z,8.50
2022-09-22T09:17:44.608Z,9.52
2022-09-22T09:22:55.684Z,8.10
2022-09-22T09:28:13.243Z,7.32
2022-09-22T09:33:33.386Z,7.55
2022-09-22T09:38:42.883Z,6.05
2022-09-22T09:43:45.625Z,5.90
2022-09-22T09:49:10.789Z,6.33
2022-09-22T09:54:17.363Z,4.43
2022-09-22T09:59:46.149Z,4.40
2022-09-22T10:04:56.168Z,3.28
2022-09-22T10:10:32.553Z,3.20
2022-09-22T10:15:37.391Z,2.28
2022-09-22T10:20:39.438Z,2.50
2022-09-22T10:25:41.389Z,2.53
2022-09-22T10:30:45.422Z,2.58
2022-09-22T10:36:09.246Z,2.63
2022-09-22T10:41:17.885Z,1.58
2022-09-22T10:46:23.107Z,2.10
2022-09-22T10:51:38.860Z,2.45
2022-09-22T10:56:46.052Z,1.88
2022-09-22T11:02:18.308Z,1.90
2022-09-22T11:08:00.848Z,1.80
2022-09-22T11:13:08.128Z,1.60
2022-09-22T11:18:28.649Z,1.30
2022-09-22T11:24:03.375Z,1.73
2022-09-22T11:29:15.852Z,1.50
2022-09-22T11:34:20.985Z,1.13
2022-09-22T11:40:02.220Z,1.20
2022-09-22T11:45:19.281Z,1.80
2022-09-22T11:50:35.214Z,1.60
2022-09-22T11:55:50.960Z,1.58
2022-09-22T12:01:06.010Z,1.50
2022-09-22T12:06:14.829Z,1.17
2022-09-22T12:11:19.629Z,1.25
2022-09-22T12:16:31.359Z,1.20
2022-09-22T12:21:54.901Z,1.00
2022-09-22T12:26:57.076Z,0.98
2022-09-22T12:31:59.761Z,1.15
2022-09-22T12:37:39.197Z,1.10
2022-09-22T12:42:51.831Z,1.70
2022-09-22T12:47:56.859Z,1.35
2022-09-22T12:53:03.998Z,1.60
2022-09-22T12:58:21.432Z,1.40
2022-09-22T13:03:26.462Z,1.40
2022-09-22T13:08:28.384Z,1.40
2022-09-22T13:13:47.522Z,1.70
2022-09-22T13:18:52.840Z,2.10
2022-09-22T13:23:54.828Z,2.33
2022-09-22T13:29:19.788Z,1.90
2022-09-22T13:34:24.677Z,1.52
2022-09-22T13:39:32.085Z,1.83
2022-09-22T13:44:38.626Z,1.95
2022-09-22T13:49:51.977Z,2.60
2022-09-22T13:55:00.605Z,2.28
2022-09-22T14:00:05.275Z,2.45
2022-09-22T14:05:16.829Z,2.45
2022-09-22T14:10:20.893Z,2.35
2022-09-22T14:15:39.003Z,2.67
2022-09-22T14:20:43.740Z,2.97
2022-09-22T14:25:46.119Z,2.50
2022-09-22T14:30:49.542Z,2.63
2022-09-22T14:36:04.083Z,2.85
2022-09-22T14:41:21.724Z,2.90
2022-09-22T14:46:41.874Z,2.67
2022-09-22T14:51:47.297Z,2.45
2022-09-22T14:56:50.728Z,2.50
2022-09-22T15:02:18.655Z,3.00
2022-09-22T15:07:30.121Z,2.90
2022-09-22T15:12:46.184Z,2.78
2022-09-22T15:18:15.317Z,3.10
2022-09-22T15:23:47.568Z,2.70
2022-09-22T15:28:51.134Z,2.85
2022-09-22T15:34:04.290Z,3.20
2022-09-22T15:39:13.729Z,3.80
2022-09-22T15:44:16.733Z,3.70
2022-09-22T15:49:23.329Z,3.10
2022-09-22T15:54:26.508Z,3.17
2022-09-22T15:59:32.386Z,2.75
2022-09-22T16:04:34.396Z,3.70
2022-09-22T16:09:36.489Z,3.42
2022-09-22T16:14:41.618Z,3.50
2022-09-22T16:19:43.993Z,4.15
2022-09-22T16:24:45.917Z,5.55
2022-09-22T16:29:48.675Z,4.88
2022-09-22T16:34:53.616Z,8.73
2022-09-22T16:39:56.136Z,6.63
2022-09-22T16:44:58.438Z,7.53
2022-09-22T16:50:00.924Z,7.78
2022-09-22T16:55:06.482Z,12.13
2022-09-22T17:00:11.708Z,12.52
2022-09-22T17:05:14.833Z,13.25
2022-09-22T17:10:19.272Z,14.27
2022-09-22T17:15:27.621Z,15.63
2022-09-22T17:20:39.059Z,15.63
2022-09-22T17:25:41.713Z,36.80
2022-09-22T17:30:44.205Z,16.77
2022-09-22T17:35:46.270Z,4.68
2022-09-22T17:40:48.470Z,18.10
2022-09-22T17:45:51.079Z,21.70
2022-09-22T17:51:11.477Z,16.52
2022-09-22T17:56:13.698Z,20.10
2022-09-22T18:01:17.223Z,13.15
2022-09-22T18:06:20.995Z,13.05
2022-09-22T18:11:26.167Z,17.48
2022-09-22T18:16:33.429Z,27.17
2022-09-22T18:21:39.319Z,25.77
2022-09-22T18:26:43.113Z,26.67
2022-09-22T18:31:45.534Z,25.65
2022-09-22T18:36:47.812Z,19.70
2022-09-22T18:41:50.307Z,16.13
2022-09-22T18:46:53.993Z,14.00
2022-09-22T18:57:06.507Z,15.88
2022-09-22T19:02:11.913Z,15.90
2022-09-22T19:07:32.682Z,15.32
2022-09-22T19:12:39.732Z,12.25
2022-09-22T19:17:45.723Z,12.40
2022-09-22T19:22:49.423Z,11.48
2022-09-22T19:27:52.643Z,10.68
2022-09-22T19:32:55.117Z,9.95
2022-09-22T19:37:57.425Z,9.13
2022-09-22T19:43:01.898Z,8.57
2022-09-22T19:48:03.934Z,9.85
2022-09-22T19:53:06.537Z,8.57
2022-09-22T19:58:08.696Z,8.77
2022-09-22T20:03:11.137Z,8.45
2022-09-22T20:08:15.919Z,8.32
2022-09-22T20:13:37.259Z,8.20
2022-09-22T20:18:41.428Z,9.32
2022-09-22T20:23:43.857Z,8.43
2022-09-22T20:28:47.576Z,8.90
2022-09-22T20:38:51.544Z,11.63
2022-09-22T20:43:54.106Z,13.68
2022-09-22T20:48:57.807Z,14.48
2022-09-22T20:59:02.559Z,10.95
2022-09-22T21:04:04.974Z,9.68
2022-09-22T21:09:28.104Z,10.30
2022-09-22T21:14:31.923Z,9.90
2022-09-22T21:24:36.642Z,9.20
2022-09-22T21:29:38.951Z,9.38
2022-09-22T21:34:42.647Z,7.90
2022-09-22T21:39:44.613Z,7.85
2022-09-22T21:44:48.566Z,8.70
2022-09-22T21:49:50.505Z,8.98
2022-09-22T21:54:52.568Z,15.02
2022-09-22T21:59:56.746Z,17.48
2022-09-22T22:04:58.775Z,14.93
2022-09-22T22:10:00.660Z,12.30
2022-09-22T22:15:02.793Z,11.07
2022-09-22T22:20:05.192Z,9.30
2022-09-22T22:25:12.756Z,8.10
2022-09-22T22:30:14.743Z,8.77
2022-09-22T22:35:16.803Z,8.57
2022-09-22T22:40:19.163Z,8.77
2022-09-22T22:45:21.185Z,9.40
2022-09-22T22:50:23.934Z,8.90
2022-09-22T22:55:25.984Z,8.95
2022-09-22T23:00:28.025Z,9.27
2022-09-22T23:05:30.252Z,9.00
2022-09-22T23:10:34.161Z,9.25
2022-09-22T23:15:36.160Z,9.50
2022-09-22T23:20:38.339Z,9.73
2022-09-22T23:25:40.404Z,10.38
2022-09-22T23:30:42.383Z,10.20
2022-09-22T23:35:53.476Z,10.57
2022-09-22T23:40:58.528Z,10.60
2022-09-22T23:46:00.848Z,9.75
2022-09-22T23:51:03.935Z,10.68
2022-09-22T23:56:06.957Z,11.60
